Time;durP1;ratioP1;P1;durP2;ratioP2;P2;SDS_P1;SDS_P2;PMS_P1;PMS_P2;Temp;Humidity;BMP_temperature;BMP_pressure;BME280_temperature;BME280_humidity;BME280_pressure;Samples;Min_cycle;Max_cycle;Signal;HPM_P1;HPM_P2
2021/07/22 00:01:39;;;;;;;15.60;9.70;;;;;;;21.85;54.12;100492.38;6066674;23;20031;-85
2021/07/22 00:04:06;;;;;;;11.75;8.05;;;;;;;21.79;53.62;100484.94;6066751;23;20027;-86
2021/07/22 00:06:33;;;;;;;13.25;8.60;;;;;;;21.73;54.38;100492.56;6067218;23;20033;-85
2021/07/22 00:08:59;;;;;;;9.52;8.02;;;;;;;21.69;54.34;100487.59;6065254;23;20023;-86
2021/07/22 00:11:26;;;;;;;10.80;8.68;;;;;;;21.64;54.40;100488.00;6065380;23;20037;-86
2021/07/22 00:13:53;;;;;;;13.52;8.63;;;;;;;21.60;54.95;100486.59;6066368;23;20030;-86
2021/07/22 00:16:19;;;;;;;12.75;8.68;;;;;;;21.55;54.58;100479.00;6066950;23;20407;-86
2021/07/22 00:18:46;;;;;;;11.32;8.90;;;;;;;21.52;54.91;100490.00;6065219;23;20391;-86
2021/07/22 00:21:13;;;;;;;10.75;8.95;;;;;;;21.48;55.19;100486.75;6065460;23;20035;-86
2021/07/22 00:23:40;;;;;;;11.57;8.35;;;;;;;21.46;55.00;100485.22;6066812;23;20027;-86
2021/07/22 00:26:06;;;;;;;13.02;8.20;;;;;;;21.40;55.33;100481.25;6065454;23;20023;-86
2021/07/22 00:28:33;;;;;;;13.13;9.02;;;;;;;21.37;55.17;100486.88;6064703;23;20027;-85
2021/07/22 00:30:59;;;;;;;12.55;9.45;;;;;;;21.35;55.56;100478.16;6065374;23;20027;-86
2021/07/22 00:33:26;;;;;;;11.77;8.57;;;;;;;21.32;55.55;100483.78;6066498;23;20030;-86
2021/07/22 00:35:53;;;;;;;11.10;7.85;;;;;;;21.28;55.54;100483.22;6066775;23;20030;-85
2021/07/22 00:38:19;;;;;;;12.57;8.95;;;;;;;21.27;55.76;100475.34;6065016;23;20027;-85
2021/07/22 00:40:46;;;;;;;12.13;9.82;;;;;;;21.21;55.71;100477.59;6065259;23;20030;-86
2021/07/22 00:43:13;;;;;;;12.65;8.55;;;;;;;21.18;55.66;100483.22;6066788;23;20022;-86
2021/07/22 00:45:40;;;;;;;11.75;8.80;;;;;;;21.16;55.97;100476.31;6066496;23;20023;-86
2021/07/22 00:48:06;;;;;;;12.10;8.70;;;;;;;21.12;55.75;100477.56;6064853;23;20478;-85
2021/07/22 00:50:33;;;;;;;13.20;9.27;;;;;;;21.08;55.91;100466.28;6066534;23;20027;-86
2021/07/22 00:53:00;;;;;;;12.63;10.18;;;;;;;21.05;56.07;100469.25;6066741;23;20363;-86
2021/07/22 00:55:27;;;;;;;13.23;10.45;;;;;;;21.02;56.08;100472.19;6066273;23;20027;-86
2021/07/22 00:57:54;;;;;;;14.55;10.63;;;;;;;20.99;56.29;100469.78;6064780;23;20026;-86
2021/07/22 01:00:21;;;;;;;13.27;9.90;;;;;;;20.95;56.20;100471.91;6064976;23;20366;-86
2021/07/22 01:02:48;;;;;;;14.00;10.38;;;;;;;20.92;56.30;100473.03;6065076;23;20023;-86
2021/07/22 01:05:15;;;;;;;13.23;10.05;;;;;;;20.88;56.39;100478.78;6066234;23;20031;-86
2021/07/22 01:07:42;;;;;;;16.00;11.10;;;;;;;20.82;56.45;100478.31;6066117;23;20338;-86
2021/07/22 01:10:09;;;;;;;16.15;11.30;;;;;;;20.77;56.75;100475.22;6064946;23;20022;-86
2021/07/22 01:12:36;;;;;;;15.40;12.13;;;;;;;20.72;57.01;100480.13;6064997;23;20034;-86
2021/07/22 01:15:03;;;;;;;15.18;10.82;;;;;;;20.67;56.97;100469.00;6065880;23;20027;-86
2021/07/22 01:17:48;;;;;;;16.50;11.38;;;;;;;20.63;57.23;100472.94;6066051;23;20093;-86
2021/07/22 01:20:16;;;;;;;14.43;10.85;;;;;;;20.59;57.22;100466.16;6064592;23;20463;-86
2021/07/22 01:22:44;;;;;;;13.98;11.13;;;;;;;20.55;57.29;100466.41;6066637;23;20037;-85
2021/07/22 01:25:12;;;;;;;15.68;11.35;;;;;;;20.52;57.47;100464.00;6064480;23;20486;-85
2021/07/22 01:27:39;;;;;;;13.68;10.85;;;;;;;20.50;57.40;100467.81;6065990;23;20039;-86
2021/07/22 01:30:07;;;;;;;13.82;10.98;;;;;;;20.46;57.28;100463.69;6066712;23;20076;-86
2021/07/22 01:32:34;;;;;;;14.93;11.05;;;;;;;20.42;57.50;100471.16;6064771;23;20030;-86
2021/07/22 01:35:01;;;;;;;15.77;11.43;;;;;;;20.39;57.87;100466.94;6064677;23;20463;-87
2021/07/22 01:37:28;;;;;;;16.65;13.13;;;;;;;20.35;58.11;100465.50;6066379;23;20454;-86
2021/07/22 01:39:55;;;;;;;16.70;11.48;;;;;;;20.31;57.93;100469.41;6064712;23;20038;-86
2021/07/22 01:42:21;;;;;;;16.27;12.23;;;;;;;20.28;58.39;100464.34;6066243;23;20033;-86
2021/07/22 01:44:48;;;;;;;17.20;12.55;;;;;;;20.25;58.11;100460.09;6066295;23;20352;-86
2021/07/22 01:47:15;;;;;;;18.48;13.00;;;;;;;20.23;58.30;100455.88;6064062;23;20031;-85
2021/07/22 01:49:43;;;;;;;16.65;12.52;;;;;;;20.20;58.37;100458.81;6065899;23;20459;-86
2021/07/22 01:52:11;;;;;;;19.10;12.80;;;;;;;20.18;58.52;100459.78;6065557;23;20034;-86
2021/07/22 01:54:37;;;;;;;17.55;12.30;;;;;;;20.17;58.65;100457.25;6064046;23;20023;-85
2021/07/22 01:57:04;;;;;;;19.55;12.45;;;;;;;20.13;58.53;100458.50;6066191;23;20027;-86
2021/07/22 01:59:37;;;;;;;15.35;11.52;;;;;;;20.10;58.82;100448.91;6064417;23;20027;-85
2021/07/22 02:02:07;;;;;;;;;;;;;;;20.06;57.73;100447.50;6066363;23;20034;-85
2021/07/22 02:04:35;;;;;;;17.85;11.70;;;;;;;20.09;58.01;100449.03;6067448;23;20009;-85
2021/07/22 02:07:02;;;;;;;14.32;11.93;;;;;;;20.04;58.51;100446.78;6066161;23;20038;-85
2021/07/22 02:09:29;;;;;;;16.95;13.32;;;;;;;20.00;58.63;100450.69;6066119;23;20026;-86
2021/07/22 02:11:57;;;;;;;18.48;13.65;;;;;;;19.95;59.04;100451.06;6066654;23;20031;-85
2021/07/22 02:14:24;;;;;;;16.15;12.00;;;;;;;19.92;58.86;100453.97;6065980;23;20030;-86
2021/07/22 02:16:51;;;;;;;16.38;12.75;;;;;;;19.90;59.11;100454.13;6068322;23;20019;-86
2021/07/22 02:19:18;;;;;;;15.70;12.00;;;;;;;19.88;58.96;100458.75;6068140;23;20023;-85
2021/07/22 02:21:45;;;;;;;16.25;12.23;;;;;;;19.86;59.21;100452.72;6066349;23;20035;-86
2021/07/22 02:24:13;;;;;;;19.23;13.05;;;;;;;19.83;59.50;100458.31;6065932;23;20030;-85
2021/07/22 02:26:40;;;;;;;18.15;13.93;;;;;;;19.81;59.35;100452.22;6067605;23;20458;-85
2021/07/22 02:29:07;;;;;;;18.23;14.10;;;;;;;19.77;59.39;100454.31;6064581;23;20027;-86
2021/07/22 02:31:34;;;;;;;19.50;14.05;;;;;;;19.75;59.61;100453.63;6066606;23;20030;-85
2021/07/22 02:34:01;;;;;;;19.30;13.90;;;;;;;19.73;59.66;100462.75;6067070;23;20082;-86
2021/07/22 02:36:28;;;;;;;17.05;13.60;;;;;;;19.71;59.68;100456.66;6067760;23;20383;-85
2021/07/22 02:38:54;;;;;;;17.98;14.15;;;;;;;19.70;59.68;100454.97;6066955;23;20027;-86
2021/07/22 02:41:21;;;;;;;17.13;13.55;;;;;;;19.67;59.90;100462.25;6067897;23;20042;-86
2021/07/22 02:43:49;;;;;;;21.15;14.40;;;;;;;19.67;60.14;100456.09;6066755;23;20493;-86
2021/07/22 02:46:15;;;;;;;17.60;14.07;;;;;;;19.66;60.33;100457.03;6066068;23;20038;-86
2021/07/22 02:48:42;;;;;;;18.98;14.63;;;;;;;19.66;60.42;100459.72;6067381;23;20082;-86
2021/07/22 02:51:08;;;;;;;18.88;14.65;;;;;;;19.65;60.24;100453.53;6066001;23;20027;-86
2021/07/22 02:53:35;;;;;;;20.00;14.82;;;;;;;19.66;60.50;100457.03;6067187;23;20344;-86
2021/07/22 02:56:03;;;;;;;23.58;15.20;;;;;;;19.67;60.66;100456.09;6065724;23;20026;-86
2021/07/22 02:58:30;;;;;;;20.77;15.38;;;;;;;19.69;60.80;100469.31;6065609;23;20106;-86
2021/07/22 03:00:57;;;;;;;19.05;14.98;;;;;;;19.70;60.91;100463.81;6065475;23;20038;-86
2021/07/22 03:03:24;;;;;;;21.15;14.98;;;;;;;19.71;60.80;100462.88;6067281;23;20078;-86
2021/07/22 03:05:51;;;;;;;25.20;15.68;;;;;;;19.74;60.79;100461.75;6065418;23;20098;-86
2021/07/22 03:08:17;;;;;;;19.88;14.35;;;;;;;19.74;61.15;100457.25;6066029;23;20096;-86
2021/07/22 03:10:45;;;;;;;20.33;15.75;;;;;;;19.77;61.00;100464.16;6065534;23;20023;-85
2021/07/22 03:13:11;;;;;;;21.58;15.55;;;;;;;19.78;60.99;100465.88;6065488;23;20026;-85
2021/07/22 03:15:38;;;;;;;20.85;14.88;;;;;;;19.81;61.40;100467.44;6066344;23;20026;-86
2021/07/22 03:18:04;;;;;;;21.23;14.90;;;;;;;19.83;61.19;100466.31;6066896;23;20031;-85
2021/07/22 03:20:31;;;;;;;22.85;15.43;;;;;;;19.85;61.32;100464.34;6064981;23;20034;-86
2021/07/22 03:23:02;;;;;;;20.10;15.63;;;;;;;19.86;61.55;100463.38;6065514;23;20367;-86
2021/07/22 03:25:29;;;;;;;20.77;14.93;;;;;;;19.89;61.19;100463.09;6066682;23;20409;-86
2021/07/22 03:27:59;;;;;;;21.70;16.10;;;;;;;19.93;60.99;100461.03;6065619;23;20030;-86
2021/07/22 03:30:27;;;;;;;20.63;15.00;;;;;;;19.94;61.08;100462.72;6065387;23;20463;-86
2021/07/22 03:32:54;;;;;;;21.83;15.77;;;;;;;19.97;60.95;100461.63;6066979;23;20027;-86
2021/07/22 03:35:20;;;;;;;20.25;14.65;;;;;;;19.96;60.90;100458.09;6065598;23;20019;-85
2021/07/22 03:37:47;;;;;;;19.92;15.13;;;;;;;19.98;60.80;100457.94;6065334;23;20023;-86
2021/07/22 03:40:14;;;;;;;22.10;15.13;;;;;;;19.97;61.09;100462.47;6065516;23;20507;-86
2021/07/22 03:42:40;;;;;;;20.05;15.25;;;;;;;19.99;61.22;100459.66;6065283;23;20027;-86
2021/07/22 03:45:07;;;;;;;17.63;14.85;;;;;;;19.99;61.10;100465.03;6066793;23;20034;-86
2021/07/22 03:47:34;;;;;;;20.00;15.15;;;;;;;20.00;61.15;100456.03;6065146;23;20026;-85
2021/07/22 03:50:02;;;;;;;19.08;14.80;;;;;;;20.02;61.14;100452.25;6066481;23;20079;-86
2021/07/22 03:52:29;;;;;;;18.95;14.77;;;;;;;20.03;61.02;100461.09;6065265;23;20023;-86
2021/07/22 03:54:56;;;;;;;19.88;14.57;;;;;;;20.04;61.01;100452.97;6065312;23;20035;-86
2021/07/22 03:57:23;;;;;;;19.75;14.65;;;;;;;20.04;60.84;100454.81;6064764;23;20023;-85
2021/07/22 03:59:49;;;;;;;19.92;14.27;;;;;;;20.06;60.80;100455.50;6065630;23;20023;-85
2021/07/22 04:02:16;;;;;;;23.27;14.93;;;;;;;20.07;61.15;100454.50;6066797;23;20210;-86
2021/07/22 04:04:44;;;;;;;18.50;15.32;;;;;;;20.07;60.97;100459.03;6064941;23;20086;-85
2021/07/22 04:07:10;;;;;;;17.92;14.07;;;;;;;20.07;60.87;100457.19;6066401;23;20030;-86
2021/07/22 04:09:38;;;;;;;21.77;15.00;;;;;;;20.08;60.81;100452.72;6064908;23;20058;-86
2021/07/22 04:12:05;;;;;;;21.98;15.30;;;;;;;20.08;60.86;100452.72;6065249;23;20372;-85
2021/07/22 04:14:32;;;;;;;21.08;15.38;;;;;;;20.08;60.92;100448.22;6064784;23;20045;-86
2021/07/22 04:16:59;;;;;;;23.73;16.73;;;;;;;20.08;60.85;100450.88;6065067;23;20019;-86
2021/07/22 04:19:25;;;;;;;20.67;15.20;;;;;;;20.08;61.14;100453.56;6065097;23;20078;-86
2021/07/22 04:21:52;;;;;;;20.40;15.57;;;;;;;20.08;61.03;100458.91;6064941;23;20031;-86
2021/07/22 04:24:19;;;;;;;20.85;15.43;;;;;;;20.08;61.06;100450.88;6066555;23;20467;-86
2021/07/22 04:26:45;;;;;;;20.20;15.90;;;;;;;20.08;61.00;100452.72;6066181;23;20046;-86
2021/07/22 04:29:12;;;;;;;23.83;16.17;;;;;;;20.08;60.59;100458.03;6066143;23;20026;-86
2021/07/22 04:31:39;;;;;;;21.83;15.85;;;;;;;20.08;60.75;100452.72;6066497;23;20042;-86
2021/07/22 04:34:05;;;;;;;22.50;15.75;;;;;;;20.08;61.01;100456.22;6065980;23;20027;-85
2021/07/22 04:36:32;;;;;;;20.58;15.35;;;;;;;20.08;61.08;100461.56;6066345;23;20026;-86
2021/07/22 04:38:58;;;;;;;17.45;13.25;;;;;;;20.08;61.07;100458.91;6065886;23;20023;-86
2021/07/22 04:41:25;;;;;;;18.48;14.85;;;;;;;20.09;61.41;100462.41;6066531;23;20046;-86
2021/07/22 04:43:52;;;;;;;20.45;15.02;;;;;;;20.09;61.06;100460.59;6066190;23;20022;-85
2021/07/22 04:46:18;;;;;;;19.25;14.13;;;;;;;20.10;61.22;100456.94;6066279;23;20023;-86
2021/07/22 04:48:45;;;;;;;20.02;14.13;;;;;;;20.12;61.15;100455.00;6064769;23;20399;-86
2021/07/22 04:51:11;;;;;;;18.92;13.57;;;;;;;20.12;61.02;100454.13;6066381;23;20034;-86
2021/07/22 04:53:40;;;;;;;18.17;14.30;;;;;;;20.14;61.38;100458.38;6064590;23;20530;-86
2021/07/22 04:56:08;;;;;;;19.38;15.27;;;;;;;20.13;61.04;100454.00;6066148;23;20026;-87
2021/07/22 04:58:34;;;;;;;20.35;14.98;;;;;;;20.15;61.09;100460.06;6064545;23;20023;-87
2021/07/22 05:01:04;;;;;;;16.98;12.68;;;;;;;20.13;61.00;100464.69;6064489;23;20490;-86
2021/07/22 05:03:31;;;;;;;18.45;13.85;;;;;;;20.15;60.93;100465.41;6066044;23;20034;-86
2021/07/22 05:05:58;;;;;;;17.90;12.38;;;;;;;20.15;60.75;100465.41;6065903;23;20050;-86
2021/07/22 05:08:24;;;;;;;16.38;13.65;;;;;;;20.16;61.22;100471.59;6064805;23;20026;-86
2021/07/22 05:10:51;;;;;;;18.77;14.50;;;;;;;20.16;61.15;100466.25;6064906;23;20030;-86
2021/07/22 05:13:18;;;;;;;20.77;15.35;;;;;;;20.18;61.05;100465.13;6064521;23;20102;-86
2021/07/22 05:15:45;;;;;;;19.80;14.32;;;;;;;20.20;61.33;100470.34;6066134;23;20089;-86
2021/07/22 05:18:15;;;;;;;24.13;14.68;;;;;;;20.23;61.21;100474.59;6066179;23;20367;-86
2021/07/22 05:20:43;;;;;;;17.80;14.27;;;;;;;20.23;60.92;100472.78;6065841;23;20019;-86
2021/07/22 05:23:09;;;;;;;18.23;14.80;;;;;;;20.24;60.63;100466.44;6066081;23;20475;-86
2021/07/22 05:25:37;;;;;;;18.05;14.15;;;;;;;20.26;60.63;100471.66;6064501;23;20034;-85
2021/07/22 05:28:03;;;;;;;21.20;14.43;;;;;;;20.27;60.64;100468.00;6065763;23;20027;-86
2021/07/22 05:30:30;;;;;;;16.30;13.10;;;;;;;20.28;60.80;100473.22;6066676;23;20418;-86
2021/07/22 05:32:57;;;;;;;19.98;15.52;;;;;;;20.30;61.00;100471.25;6066266;23;20344;-86
2021/07/22 05:35:24;;;;;;;19.48;15.18;;;;;;;20.33;60.64;100472.78;6064289;23;20371;-86
2021/07/22 05:37:53;;;;;;;25.20;15.45;;;;;;;20.37;61.07;100474.22;6064889;23;20359;-86
2021/07/22 05:40:19;;;;;;;17.10;14.27;;;;;;;20.40;60.93;100479.31;6067840;23;20034;-86
2021/07/22 05:42:48;;;;;;;21.60;14.95;;;;;;;20.42;60.73;100465.81;6067909;23;20038;-86
2021/07/22 05:45:15;;;;;;;18.80;14.70;;;;;;;20.43;60.43;100471.03;6066605;23;20023;-86
2021/07/22 05:47:42;;;;;;;18.52;13.00;;;;;;;20.44;60.56;100478.06;6066321;23;20023;-86
2021/07/22 05:50:09;;;;;;;21.38;14.93;;;;;;;20.44;60.80;100470.03;6068654;23;20046;-86
2021/07/22 05:52:35;;;;;;;19.30;14.13;;;;;;;20.46;60.64;100477.94;6068355;23;20023;-86
2021/07/22 05:55:03;;;;;;;20.08;14.40;;;;;;;20.46;60.45;100479.75;6066604;23;20026;-86
2021/07/22 05:57:32;;;;;;;18.40;14.20;;;;;;;20.46;60.65;100474.41;6066379;23;20027;-86
2021/07/22 05:59:58;;;;;;;18.60;14.27;;;;;;;20.46;60.50;100469.91;6067962;23;20459;-86
2021/07/22 06:02:25;;;;;;;18.13;14.60;;;;;;;20.47;60.73;100476.94;6066548;23;20029;-87
2021/07/22 06:04:52;;;;;;;18.33;13.50;;;;;;;20.48;60.90;100469.78;6067094;23;20030;-86
2021/07/22 06:07:18;;;;;;;19.73;14.10;;;;;;;20.53;60.59;100483.59;6067730;23;20023;-86
2021/07/22 06:09:45;;;;;;;21.52;15.38;;;;;;;20.55;61.24;100484.28;6066483;23;20027;-86
2021/07/22 06:12:12;;;;;;;18.70;14.13;;;;;;;20.59;60.89;100483.03;6066413;23;20023;-85
2021/07/22 06:14:39;;;;;;;19.45;14.27;;;;;;;20.61;60.62;100481.09;6067271;23;20031;-85
2021/07/22 06:17:05;;;;;;;24.98;15.40;;;;;;;20.63;60.57;100480.94;6066225;23;20019;-85
2021/07/22 06:19:32;;;;;;;18.73;14.57;;;;;;;20.66;60.25;100478.00;6066125;23;20336;-84
2021/07/22 06:21:59;;;;;;;20.40;14.13;;;;;;;20.67;60.37;100485.06;6067864;23;20037;-86
2021/07/22 06:24:26;;;;;;;20.33;14.95;;;;;;;20.68;60.38;100481.38;6066802;23;20018;-85
2021/07/22 06:26:52;;;;;;;18.98;14.70;;;;;;;20.69;60.36;100478.59;6065548;23;20023;-85
2021/07/22 06:29:19;;;;;;;20.55;14.02;;;;;;;20.73;60.41;100478.28;6065626;23;20034;-85
2021/07/22 06:31:45;;;;;;;17.58;14.48;;;;;;;20.76;60.39;100478.88;6064345;23;20023;-85
2021/07/22 06:34:12;;;;;;;19.52;14.43;;;;;;;20.80;60.43;100476.78;6064934;23;20475;-85
2021/07/22 06:36:39;;;;;;;19.05;13.93;;;;;;;20.83;60.67;100479.19;6065954;23;20041;-85
2021/07/22 06:39:05;;;;;;;21.20;14.57;;;;;;;20.87;60.71;100472.59;6063806;23;20030;-85
2021/07/22 06:41:32;;;;;;;17.65;13.43;;;;;;;20.93;60.36;100476.56;6062541;23;20471;-86
2021/07/22 06:43:58;;;;;;;17.42;13.70;;;;;;;20.98;60.31;100471.63;6063361;23;20027;-85
2021/07/22 06:46:25;;;;;;;17.52;14.13;;;;;;;21.02;60.11;100477.56;6063438;23;20026;-85
2021/07/22 06:48:54;;;;;;;16.42;12.93;;;;;;;21.05;60.48;100483.47;6062710;23;20094;-85
2021/07/22 06:51:23;;;;;;;16.83;12.90;;;;;;;21.07;59.63;100476.16;6065138;23;20517;-87
2021/07/22 06:53:52;;;;;;;15.82;12.48;;;;;;;21.11;59.81;100481.25;6063760;23;20105;-85
2021/07/22 06:56:18;;;;;;;16.58;13.00;;;;;;;21.13;59.86;100474.75;6065468;23;20352;-85
2021/07/22 06:58:47;;;;;;;17.02;13.43;;;;;;;21.14;59.40;100475.59;6064113;23;20761;-85
2021/07/22 07:01:15;;;;;;;18.92;13.02;;;;;;;21.16;59.29;100477.13;6064154;23;20022;-85
2021/07/22 07:03:42;;;;;;;16.60;12.55;;;;;;;21.19;59.20;100474.19;6064601;23;20039;-88
2021/07/22 07:06:09;;;;;;;15.32;12.50;;;;;;;21.22;59.23;100476.59;6064069;23;20042;-88
2021/07/22 07:08:35;;;;;;;14.85;11.73;;;;;;;21.27;59.16;100478.00;6066190;23;20482;-88
2021/07/22 07:11:02;;;;;;;15.60;12.38;;;;;;;21.32;59.17;100473.06;6064658;23;20082;-88
2021/07/22 07:13:28;;;;;;;16.17;11.98;;;;;;;21.38;58.99;100477.03;6064339;23;20023;-88
2021/07/22 07:15:55;;;;;;;17.90;13.32;;;;;;;21.45;59.27;100475.47;6064591;23;20023;-89
2021/07/22 07:18:22;;;;;;;17.30;12.43;;;;;;;21.52;59.74;100473.09;6065683;23;20332;-88
2021/07/22 07:20:48;;;;;;;14.73;12.30;;;;;;;21.61;59.53;100477.59;6064472;23;20351;-87
2021/07/22 07:23:15;;;;;;;16.40;12.73;;;;;;;21.69;59.41;100475.03;6065581;23;20027;-86
2021/07/22 07:25:42;;;;;;;15.77;12.18;;;;;;;21.80;59.11;100475.91;6065689;23;20589;-87
2021/07/22 07:28:08;;;;;;;18.50;12.13;;;;;;;21.88;58.94;100473.34;6016506;23;1141607;-87
2021/07/22 07:30:35;;;;;;;15.95;12.57;;;;;;;21.97;58.94;100483.19;6067428;23;20034;-90
2021/07/22 07:33:02;;;;;;;17.85;12.70;;;;;;;22.05;58.38;100478.97;6065455;23;20467;-87
2021/07/22 07:35:28;;;;;;;16.98;11.45;;;;;;;22.13;58.96;100485.28;6065580;23;20031;-88
2021/07/22 07:37:55;;;;;;;15.63;11.63;;;;;;;22.24;58.96;100488.78;6066549;23;20027;-88
2021/07/22 07:40:22;;;;;;;15.50;10.70;;;;;;;22.33;58.45;100492.41;6064071;23;20023;-88
2021/07/22 07:42:49;;;;;;;14.35;11.23;;;;;;;22.41;58.17;100483.63;6063092;23;20360;-87
2021/07/22 07:45:16;;;;;;;14.48;10.43;;;;;;;22.49;57.85;100481.91;6066520;23;20023;-88
2021/07/22 07:47:43;;;;;;;14.75;10.70;;;;;;;22.56;57.67;100484.88;6066782;23;20022;-88
2021/07/22 07:50:09;;;;;;;14.63;10.95;;;;;;;22.61;57.56;100485.25;6066033;23;20027;-88
2021/07/22 07:52:36;;;;;;;14.25;10.90;;;;;;;22.67;57.48;100483.81;6067340;23;20355;-88
2021/07/22 07:55:06;;;;;;;11.48;9.98;;;;;;;22.72;57.83;100483.41;6067385;23;20034;-88
2021/07/22 07:57:32;;;;;;;15.38;9.88;;;;;;;22.80;57.42;100483.47;6067439;23;20030;-89
2021/07/22 07:59:59;;;;;;;12.25;10.40;;;;;;;22.87;57.24;100484.56;6065419;23;20023;-90
2021/07/22 08:02:26;;;;;;;17.38;10.77;;;;;;;22.96;57.21;100488.19;6067534;23;20023;-88
2021/07/22 08:04:55;;;;;;;12.73;10.95;;;;;;;23.03;56.76;100477.69;6067272;23;20034;-89
2021/07/22 08:07:21;;;;;;;13.73;10.40;;;;;;;23.10;56.30;100485.97;6066481;23;20019;-87
2021/07/22 08:09:48;;;;;;;12.20;10.38;;;;;;;23.13;56.27;100488.34;6066434;23;20022;-89
2021/07/22 08:12:16;;;;;;;15.02;10.70;;;;;;;23.15;55.77;100484.53;6063889;23;20047;-89
2021/07/22 08:14:44;;;;;;;15.40;10.50;;;;;;;23.19;56.22;100489.59;6064805;23;20030;-88
2021/07/22 08:17:15;;;;;;;13.30;10.05;;;;;;;23.22;55.76;100487.47;6068267;23;20030;-89
2021/07/22 08:19:42;;;;;;;12.73;10.38;;;;;;;23.30;56.27;100484.81;6066757;23;20344;-89
2021/07/22 08:22:13;;;;;;;13.27;10.75;;;;;;;23.36;55.76;100486.09;6065398;23;20347;-88
2021/07/22 08:24:40;;;;;;;15.70;11.15;;;;;;;23.43;56.17;100484.50;6067051;23;20105;-88
2021/07/22 08:27:07;;;;;;;13.23;10.48;;;;;;;23.49;55.87;100493.78;6065292;23;20015;-88
2021/07/22 08:29:38;;;;;;;13.75;11.05;;;;;;;23.53;55.38;100489.78;6065344;23;20034;-88
2021/07/22 08:32:05;;;;;;;12.88;10.25;;;;;;;23.63;55.55;100489.66;6066965;23;20029;-88
2021/07/22 08:34:32;;;;;;;14.50;10.88;;;;;;;23.69;55.36;100493.59;6066987;23;20027;-88
2021/07/22 08:37:06;;;;;;;15.23;9.95;;;;;;;23.76;55.51;100493.81;6067745;23;20027;-88
2021/07/22 08:39:37;;;;;;;14.02;10.77;;;;;;;23.86;55.24;100488.34;6067342;23;20030;-88
2021/07/22 08:42:05;;;;;;;15.10;11.15;;;;;;;23.97;55.55;100487.25;6067348;23;20022;-88
2021/07/22 08:44:37;;;;;;;14.05;11.18;;;;;;;24.05;54.83;100492.69;6066095;23;20034;-87
2021/07/22 08:47:05;;;;;;;18.42;12.20;;;;;;;24.16;55.06;100487.06;6066067;23;20054;-88
2021/07/22 08:49:36;;;;;;;16.77;10.70;;;;;;;24.25;55.22;100487.13;6064800;23;20018;-87
2021/07/22 08:52:11;;;;;;;18.73;12.30;;;;;;;24.33;54.72;100490.69;6065681;23;20118;-88
2021/07/22 08:54:39;;;;;;;13.65;10.88;;;;;;;24.47;54.66;100485.69;6065529;23;20031;-87
2021/07/22 08:57:09;;;;;;;14.40;11.75;;;;;;;24.53;53.96;100485.06;6066475;23;20015;-87
2021/07/22 08:59:36;;;;;;;14.65;10.88;;;;;;;24.62;54.02;100488.63;6065035;23;20084;-87
2021/07/22 09:02:04;;;;;;;14.75;11.43;;;;;;;24.68;54.03;100482.63;6065225;23;20037;-87
2021/07/22 09:04:51;;;;;;;15.23;11.43;;;;;;;24.71;53.90;100482.25;6065339;23;20356;-87
2021/07/22 09:07:19;;;;;;;13.07;10.52;;;;;;;24.85;54.02;100485.38;6065145;23;20363;-86
2021/07/22 09:10:04;;;;;;;14.80;10.95;;;;;;;24.88;53.99;100476.97;6066661;23;20027;-87
2021/07/22 09:12:54;;;;;;;14.85;11.23;;;;;;;24.95;53.63;100483.38;6066840;23;20328;-88
2021/07/22 09:15:33;;;;;;;18.42;12.18;;;;;;;25.04;52.63;100480.72;6065237;23;20030;-87
2021/07/22 09:18:26;;;;;;;15.45;10.90;;;;;;;25.09;53.03;100489.16;6066159;23;20030;-87
2021/07/22 09:20:54;;;;;;;15.18;10.93;;;;;;;25.16;52.41;100490.19;6065233;23;20347;-87
2021/07/22 09:23:22;;;;;;;16.08;11.55;;;;;;;25.18;52.09;100481.91;6065837;23;20033;-87
2021/07/22 09:25:51;;;;;;;13.95;11.13;;;;;;;25.21;52.21;100484.28;6066816;23;20047;-87
2021/07/22 09:28:23;;;;;;;15.05;12.18;;;;;;;25.21;52.10;100487.81;6066072;23;20026;-87
2021/07/22 09:30:58;;;;;;;15.18;11.85;;;;;;;25.23;52.08;100484.97;6067125;23;20033;-87
2021/07/22 09:33:40;;;;;;;16.38;11.13;;;;;;;25.27;52.06;100490.84;6066347;23;20027;-87
2021/07/22 09:36:27;;;;;;;17.00;12.52;;;;;;;25.35;52.46;100489.00;6064608;23;20026;-87
2021/07/22 09:39:21;;;;;;;14.15;11.45;;;;;;;25.39;52.06;100486.81;6065843;23;20034;-88
2021/07/22 09:42:00;;;;;;;14.63;11.32;;;;;;;25.49;51.93;100490.19;6065084;23;20027;-87
2021/07/22 09:44:30;;;;;;;17.02;11.98;;;;;;;25.57;51.03;100486.69;6066141;23;20029;-88
2021/07/22 09:46:58;;;;;;;14.85;12.32;;;;;;;25.61;51.01;100482.63;6064819;23;20023;-88
2021/07/22 09:50:06;;;;;;;13.85;12.10;;;;;;;25.60;51.24;100485.53;6064128;23;20027;-88
2021/07/22 09:52:33;;;;;;;14.70;11.77;;;;;;;25.70;50.83;100485.31;6052264;23;20030;-87
2021/07/22 09:54:59;;;;;;;16.70;12.65;;;;;;;25.74;51.79;100483.97;6066459;23;20027;-85
2021/07/22 09:57:28;;;;;;;14.82;11.70;;;;;;;25.77;51.28;100486.34;6066456;23;20034;-84
2021/07/22 09:59:56;;;;;;;17.35;11.48;;;;;;;25.78;50.90;100488.03;6066714;23;20030;-89
2021/07/22 10:02:25;;;;;;;14.57;11.63;;;;;;;25.80;50.62;100485.16;6070453;23;20087;-85
2021/07/22 10:05:02;;;;;;;14.90;12.63;;;;;;;25.81;50.80;100481.44;6064755;23;20493;-85
2021/07/22 10:07:30;;;;;;;16.50;12.80;;;;;;;25.88;51.29;100485.16;6066549;23;20019;-84
2021/07/22 10:10:02;;;;;;;18.85;12.88;;;;;;;25.92;51.30;100489.19;6065196;23;20067;-85
2021/07/22 10:12:30;;;;;;;16.50;13.67;;;;;;;26.01;50.65;100471.97;6064916;23;20023;-85
2021/07/22 10:15:00;;;;;;;17.35;13.13;;;;;;;26.07;50.83;100478.53;6065974;23;20255;-84
2021/07/22 10:17:35;;;;;;;15.45;12.05;;;;;;;26.11;51.02;100479.88;6066521;23;20102;-84
2021/07/22 10:20:06;;;;;;;18.85;13.00;;;;;;;26.19;50.65;100481.72;6065365;23;20023;-85
2021/07/22 10:22:34;;;;;;;15.20;12.95;;;;;;;26.25;50.41;100477.47;6064512;23;20027;-85
2021/07/22 10:25:05;;;;;;;13.45;11.50;;;;;;;26.31;50.07;100482.19;6066800;23;20066;-85
2021/07/22 10:27:33;;;;;;;15.25;12.77;;;;;;;26.35;50.38;100483.53;6066709;23;20056;-85
2021/07/22 10:30:07;;;;;;;17.60;13.80;;;;;;;26.37;49.72;100481.53;6066020;23;20023;-85
2021/07/22 10:32:37;;;;;;;15.88;12.55;;;;;;;26.39;49.90;100476.78;6066575;23;20027;-85
2021/07/22 10:35:04;;;;;;;16.98;13.20;;;;;;;26.40;49.69;100474.94;6068177;23;20388;-84
2021/07/22 10:37:31;;;;;;;17.00;12.90;;;;;;;26.39;49.80;100476.78;6066926;23;20019;-85
2021/07/22 10:40:11;;;;;;;17.80;13.23;;;;;;;26.39;49.49;100473.25;6067777;23;20731;-85
2021/07/22 10:42:48;;;;;;;19.90;13.13;;;;;;;26.32;49.39;100470.41;6066254;23;20103;-85
2021/07/22 10:45:19;;;;;;;14.88;11.90;;;;;;;26.33;49.69;100469.41;6066114;23;20029;-85
2021/07/22 10:47:58;;;;;;;17.75;12.40;;;;;;;26.27;49.56;100473.63;6066691;23;20360;-84
2021/07/22 10:50:54;;;;;;;35.42;12.25;;;;;;;26.28;49.86;100466.38;6067111;23;20078;-86
2021/07/22 10:53:41;;;;;;;14.85;11.15;;;;;;;26.34;50.56;100475.63;6051047;23;20054;-86
2021/07/22 10:56:15;;;;;;;19.23;10.95;;;;;;;26.45;50.22;100467.16;6067396;23;20042;-86
2021/07/22 10:58:42;;;;;;;14.73;11.18;;;;;;;26.56;49.73;100465.91;6065848;23;20034;-86
2021/07/22 11:01:08;;;;;;;16.88;10.50;;;;;;;26.65;49.38;100467.56;6066671;23;20027;-86
2021/07/22 11:03:35;;;;;;;16.13;11.77;;;;;;;26.78;49.71;100461.59;6066765;23;20042;-86
2021/07/22 11:06:10;;;;;;;17.63;11.98;;;;;;;27.01;50.19;100454.56;6065526;23;20397;-86
2021/07/22 11:08:39;;;;;;;15.23;11.45;;;;;;;27.40;50.74;100458.19;6067171;23;20023;-86
2021/07/22 11:11:07;;;;;;;12.52;10.48;;;;;;;27.86;50.62;100456.41;6067297;23;20400;-86
2021/07/22 11:13:37;;;;;;;14.68;10.77;;;;;;;28.39;49.83;100450.94;6065788;23;20391;-86
2021/07/22 11:16:04;;;;;;;11.65;9.93;;;;;;;28.92;49.62;100443.69;6067273;23;20045;-86